createdAt,value
2018-07-14T00:01:29.863Z,67.98
2018-07-14T00:03:05.436Z,67.93
2018-07-14T00:04:41.223Z,68.12
2018-07-14T00:06:16.833Z,68.32
2018-07-14T00:07:52.396Z,68.24
2018-07-14T00:09:27.965Z,68.32
2018-07-14T00:11:03.533Z,68.25
2018-07-14T00:12:39.144Z,68.68
2018-07-14T00:14:14.693Z,68.52
2018-07-14T00:15:50.270Z,69.12
2018-07-14T00:17:25.846Z,69.05
2018-07-14T00:19:01.442Z,69.16
2018-07-14T00:20:37.105Z,69.42
2018-07-14T00:22:12.698Z,69.54
2018-07-14T00:23:48.336Z,69.64
2018-07-14T00:25:29.352Z,69.38
2018-07-14T00:27:04.956Z,69.97
2018-07-14T00:28:40.715Z,70.00
2018-07-14T00:30:16.382Z,69.92
2018-07-14T00:31:51.958Z,69.95
2018-07-14T00:33:27.819Z,70.10
2018-07-14T00:35:03.404Z,70.30
2018-07-14T00:36:38.938Z,69.97
2018-07-14T00:38:14.491Z,70.18
2018-07-14T00:39:50.065Z,70.56
2018-07-14T00:41:25.653Z,70.20
2018-07-14T00:43:01.260Z,70.15
2018-07-14T00:44:36.877Z,70.71
2018-07-14T00:46:12.478Z,70.45
2018-07-14T00:47:48.089Z,70.63
2018-07-14T00:49:23.648Z,70.42
2018-07-14T00:50:59.190Z,70.95
2018-07-14T00:52:34.777Z,70.63
2018-07-14T00:54:10.320Z,71.16
2018-07-14T00:55:45.929Z,70.93
2018-07-14T00:57:21.487Z,71.04
2018-07-14T00:58:57.136Z,71.11
2018-07-14T01:00:33.020Z,71.25
2018-07-14T01:02:08.574Z,71.54
2018-07-14T01:03:44.197Z,71.45
2018-07-14T01:05:19.779Z,71.53
2018-07-14T01:06:55.555Z,71.32
2018-07-14T01:08:31.133Z,71.91
2018-07-14T01:10:06.755Z,71.79
2018-07-14T01:11:42.338Z,71.57
2018-07-14T01:13:18.527Z,71.88
2018-07-14T01:14:54.151Z,72.14
2018-07-14T01:16:30.066Z,71.95
2018-07-14T01:18:05.643Z,72.18
2018-07-14T01:19:41.250Z,71.90
2018-07-14T01:21:16.807Z,72.12
2018-07-14T01:22:52.936Z,71.93
2018-07-14T01:24:28.527Z,72.36
2018-07-14T01:26:04.118Z,72.22
2018-07-14T01:27:39.972Z,72.58
2018-07-14T01:29:15.796Z,72.58
2018-07-14T01:30:51.367Z,72.76
2018-07-14T01:32:27.012Z,72.79
2018-07-14T01:34:02.578Z,72.71
2018-07-14T01:35:38.209Z,72.62
2018-07-14T01:37:13.728Z,72.65
2018-07-14T01:38:49.307Z,72.89
2018-07-14T01:40:24.890Z,72.67
2018-07-14T01:42:00.589Z,72.86
2018-07-14T01:43:36.454Z,72.71
2018-07-14T01:45:12.031Z,72.89
2018-07-14T01:46:47.566Z,72.82
2018-07-14T01:48:23.118Z,72.82
2018-07-14T01:49:58.706Z,72.88
2018-07-14T01:51:34.321Z,72.71
2018-07-14T01:53:09.866Z,73.19
2018-07-14T01:54:45.431Z,73.14
2018-07-14T01:56:21.079Z,72.71
2018-07-14T01:57:56.677Z,73.03
2018-07-14T01:59:32.292Z,73.01
2018-07-14T02:01:07.842Z,73.18
2018-07-14T02:02:43.415Z,73.20
2018-07-14T02:04:18.962Z,73.25
2018-07-14T02:05:54.558Z,73.52
2018-07-14T02:07:30.115Z,73.64
2018-07-14T02:09:05.974Z,73.65
2018-07-14T02:10:41.588Z,73.80
2018-07-14T02:12:17.184Z,73.54
2018-07-14T02:13:52.762Z,73.67
2018-07-14T02:15:28.370Z,73.88
2018-07-14T02:17:03.975Z,73.79
2018-07-14T02:18:39.546Z,73.98
2018-07-14T02:20:15.144Z,73.82
2018-07-14T02:21:50.907Z,74.01
2018-07-14T02:23:26.558Z,74.10
2018-07-14T02:25:02.125Z,73.97
2018-07-14T02:26:37.818Z,74.13
2018-07-14T02:28:13.374Z,74.22
2018-07-14T02:29:49.049Z,74.16
2018-07-14T02:31:24.620Z,74.29
2018-07-14T02:33:00.207Z,74.59
2018-07-14T02:34:35.816Z,74.74
2018-07-14T02:36:11.582Z,74.56
2018-07-14T02:37:47.162Z,74.62
2018-07-14T02:39:22.738Z,74.87
2018-07-14T02:40:58.331Z,74.92
2018-07-14T02:42:33.916Z,75.27
2018-07-14T02:44:09.488Z,75.14
2018-07-14T02:45:45.092Z,75.57
2018-07-14T02:47:20.897Z,75.48
2018-07-14T02:48:56.486Z,75.61
2018-07-14T02:50:32.080Z,75.66
2018-07-14T02:52:07.635Z,75.71
2018-07-14T02:53:43.194Z,75.58
2018-07-14T02:55:18.895Z,75.71
2018-07-14T02:56:54.823Z,75.73
2018-07-14T02:58:30.724Z,75.87
2018-07-14T03:00:06.287Z,75.85
2018-07-14T03:01:41.882Z,75.94
2018-07-14T03:03:17.519Z,75.94
2018-07-14T03:04:53.096Z,76.00
2018-07-14T03:06:28.678Z,76.01
2018-07-14T03:08:04.422Z,76.10
2018-07-14T03:09:40.018Z,76.25
2018-07-14T03:11:15.581Z,76.15
2018-07-14T03:12:51.359Z,76.05
2018-07-14T03:14:26.948Z,76.40
2018-07-14T03:16:02.508Z,76.22
2018-07-14T03:17:38.289Z,76.14
2018-07-14T03:19:13.925Z,76.44
2018-07-14T03:20:49.497Z,76.43
2018-07-14T03:22:25.116Z,76.31
2018-07-14T03:24:00.720Z,76.28
2018-07-14T03:25:36.385Z,76.30
2018-07-14T03:27:11.977Z,76.39
2018-07-14T03:28:47.617Z,76.14
2018-07-14T03:30:23.218Z,76.25
2018-07-14T03:31:58.788Z,76.24
2018-07-14T03:33:34.395Z,76.36
2018-07-14T03:35:09.970Z,76.22
2018-07-14T03:36:45.651Z,76.43
2018-07-14T03:38:21.387Z,76.29
2018-07-14T03:39:56.979Z,76.21
2018-07-14T03:41:32.538Z,76.24
2018-07-14T03:43:08.164Z,75.91
2018-07-14T03:44:43.722Z,75.96
2018-07-14T03:46:19.280Z,76.01
2018-07-14T03:47:54.849Z,75.73
2018-07-14T03:49:30.500Z,75.52
2018-07-14T03:51:06.179Z,75.61
2018-07-14T03:52:41.792Z,75.45
2018-07-14T03:54:17.305Z,75.42
2018-07-14T03:55:53.095Z,74.97
2018-07-14T03:57:28.650Z,75.01
2018-07-14T03:59:04.245Z,74.96
2018-07-14T04:00:40.018Z,74.96
2018-07-14T04:02:15.694Z,74.76
2018-07-14T04:03:51.327Z,74.84
2018-07-14T04:05:26.905Z,74.64
2018-07-14T04:07:02.521Z,74.54
2018-07-14T04:08:38.117Z,74.29
2018-07-14T04:10:13.673Z,74.30
2018-07-14T04:11:49.265Z,73.97
2018-07-14T04:13:24.836Z,73.57
2018-07-14T04:15:00.510Z,73.31
2018-07-14T04:16:36.430Z,73.09
2018-07-14T04:18:12.027Z,72.62
2018-07-14T04:19:47.583Z,72.33
2018-07-14T04:21:23.146Z,70.75
2018-07-14T04:22:59.406Z,67.99
2018-07-14T04:24:35.004Z,64.67
2018-07-14T04:26:10.615Z,61.74
2018-07-14T04:27:46.213Z,58.84
2018-07-14T04:29:21.841Z,56.29
2018-07-14T04:30:57.447Z,54.85
2018-07-14T04:32:32.999Z,54.10
2018-07-14T04:34:08.563Z,53.58
2018-07-14T04:35:44.155Z,52.24
2018-07-14T04:37:19.690Z,51.13
2018-07-14T04:38:55.362Z,49.95
2018-07-14T04:40:30.926Z,48.87
2018-07-14T04:42:06.525Z,48.45
2018-07-14T04:43:42.132Z,48.70
2018-07-14T04:45:17.675Z,48.10
2018-07-14T04:46:53.271Z,47.57
2018-07-14T04:48:28.870Z,47.48
2018-07-14T04:50:04.417Z,47.01
2018-07-14T04:51:40.022Z,47.16
2018-07-14T04:53:15.661Z,47.21
2018-07-14T04:54:51.199Z,47.29
2018-07-14T04:56:26.809Z,46.79
2018-07-14T04:58:02.444Z,46.14
2018-07-14T04:59:37.995Z,47.08
2018-07-14T05:01:13.558Z,48.07
2018-07-14T05:02:49.143Z,49.88
2018-07-14T05:04:24.738Z,51.25
2018-07-14T05:06:00.296Z,52.32
2018-07-14T05:07:36.341Z,53.08
2018-07-14T05:09:12.117Z,53.89
2018-07-14T05:10:47.737Z,54.14
2018-07-14T05:12:23.310Z,54.32
2018-07-14T05:13:58.925Z,55.28
2018-07-14T05:15:35.431Z,55.41
2018-07-14T05:17:11.029Z,55.69
2018-07-14T05:18:47.339Z,56.14
2018-07-14T05:20:23.359Z,56.43
2018-07-14T05:21:59.042Z,57.14
2018-07-14T05:23:34.635Z,57.19
2018-07-14T05:25:10.229Z,57.28
2018-07-14T05:26:45.836Z,57.52
2018-07-14T05:28:21.441Z,57.98
2018-07-14T05:29:57.006Z,58.22
2018-07-14T05:31:32.567Z,58.03
2018-07-14T05:33:08.230Z,57.87
2018-07-14T05:34:43.771Z,58.25
2018-07-14T05:36:19.359Z,57.83
2018-07-14T05:37:54.957Z,58.39
2018-07-14T05:39:30.574Z,58.10
2018-07-14T05:41:06.455Z,58.55
2018-07-14T05:42:42.058Z,58.66
2018-07-14T05:44:17.657Z,59.06
2018-07-14T05:45:53.270Z,58.89
2018-07-14T05:47:28.854Z,60.00
2018-07-14T05:49:04.416Z,60.89
2018-07-14T05:50:40.042Z,60.96
2018-07-14T05:52:15.947Z,61.59
2018-07-14T05:53:51.518Z,62.16
2018-07-14T05:55:27.122Z,62.87
2018-07-14T05:57:02.753Z,63.27
2018-07-14T05:58:38.344Z,63.54
2018-07-14T06:00:13.949Z,63.76
2018-07-14T06:01:49.529Z,63.85
2018-07-14T06:03:25.112Z,63.77
2018-07-14T06:05:00.682Z,63.37
2018-07-14T06:06:36.250Z,63.92
2018-07-14T06:08:11.798Z,63.84
2018-07-14T06:09:50.404Z,64.05
2018-07-14T06:11:26.548Z,63.82
2018-07-14T06:13:02.203Z,63.83
2018-07-14T06:14:38.018Z,64.45
2018-07-14T06:16:13.810Z,64.28
2018-07-14T06:17:49.503Z,64.06
2018-07-14T06:19:25.296Z,64.67
2018-07-14T06:21:01.119Z,64.85
2018-07-14T06:22:36.670Z,64.51
2018-07-14T06:24:12.243Z,64.57
2018-07-14T06:25:48.133Z,64.37
2018-07-14T06:27:23.969Z,64.25
2018-07-14T06:28:59.597Z,64.53
2018-07-14T06:30:35.234Z,64.12
2018-07-14T06:32:10.994Z,64.03
2018-07-14T06:33:46.496Z,63.84
2018-07-14T06:35:22.057Z,63.55
2018-07-14T06:36:57.753Z,63.76
2018-07-14T06:38:33.539Z,63.62
2018-07-14T06:40:09.050Z,63.47
2018-07-14T06:41:44.629Z,63.54
2018-07-14T06:43:20.225Z,63.04
2018-07-14T06:44:55.802Z,62.92
2018-07-14T06:46:31.755Z,62.47
2018-07-14T06:48:07.440Z,62.30
2018-07-14T06:49:43.202Z,62.59
2018-07-14T06:51:18.905Z,61.72
2018-07-14T06:52:54.650Z,62.55
2018-07-14T06:54:30.289Z,62.87
2018-07-14T06:56:05.953Z,62.43
2018-07-14T06:57:42.079Z,62.69
2018-07-14T06:59:17.997Z,63.11
2018-07-14T07:00:53.916Z,62.59
2018-07-14T07:02:29.533Z,62.96
2018-07-14T07:04:05.227Z,62.88
2018-07-14T07:05:40.806Z,62.34
2018-07-14T07:07:16.689Z,62.55
2018-07-14T07:08:52.323Z,62.30
2018-07-14T07:10:27.929Z,62.13
2018-07-14T07:12:03.611Z,62.49
2018-07-14T07:13:39.168Z,62.41
2018-07-14T07:15:14.830Z,62.09
2018-07-14T07:16:50.402Z,61.99
2018-07-14T07:18:25.955Z,61.96
2018-07-14T07:20:01.563Z,62.21
2018-07-14T07:21:37.203Z,61.63
2018-07-14T07:23:12.792Z,61.80
2018-07-14T07:24:48.703Z,61.17
2018-07-14T07:26:24.282Z,61.50
2018-07-14T07:27:59.941Z,61.22
2018-07-14T07:29:35.498Z,60.79
2018-07-14T07:31:11.055Z,61.06
2018-07-14T07:32:46.606Z,61.18
2018-07-14T07:34:22.262Z,60.87
2018-07-14T07:35:57.831Z,60.73
2018-07-14T07:37:33.480Z,60.21
2018-07-14T07:39:09.031Z,59.68
2018-07-14T07:40:45.123Z,59.03
2018-07-14T07:42:21.073Z,59.31
2018-07-14T07:43:56.599Z,58.43
2018-07-14T07:45:32.154Z,58.44
2018-07-14T07:47:07.753Z,58.11
2018-07-14T07:48:43.392Z,58.26
2018-07-14T07:50:18.960Z,57.73
2018-07-14T07:51:54.536Z,57.19
2018-07-14T07:53:30.242Z,57.35
2018-07-14T07:55:06.108Z,57.14
2018-07-14T07:56:41.695Z,57.36
2018-07-14T07:58:17.289Z,56.36
2018-07-14T07:59:52.893Z,56.25
2018-07-14T08:01:28.494Z,56.35
2018-07-14T08:03:04.056Z,55.98
2018-07-14T08:04:39.827Z,56.22
2018-07-14T08:06:15.401Z,55.68
2018-07-14T08:07:50.998Z,55.32
2018-07-14T08:09:26.558Z,55.18
2018-07-14T08:11:02.128Z,55.11
2018-07-14T08:12:37.690Z,55.25
2018-07-14T08:14:13.417Z,54.71
2018-07-14T08:15:49.043Z,54.98
2018-07-14T08:17:24.632Z,54.51
2018-07-14T08:19:00.363Z,54.44
2018-07-14T08:20:35.916Z,54.77
2018-07-14T08:22:11.482Z,54.72
2018-07-14T08:23:47.101Z,54.50
2018-07-14T08:25:22.681Z,54.41
2018-07-14T08:26:58.319Z,53.81
2018-07-14T08:28:33.923Z,54.15
2018-07-14T08:30:09.655Z,53.43
2018-07-14T08:31:45.217Z,53.81
2018-07-14T08:33:20.810Z,53.18
2018-07-14T08:34:56.550Z,52.53
2018-07-14T08:36:32.483Z,51.33
2018-07-14T08:38:08.077Z,50.84
2018-07-14T08:39:43.654Z,50.96
2018-07-14T08:41:19.457Z,50.97
2018-07-14T08:42:55.016Z,50.95
2018-07-14T08:44:30.571Z,50.49
2018-07-14T08:46:06.376Z,49.72
2018-07-14T08:47:41.933Z,49.89
2018-07-14T08:49:17.520Z,49.51
2018-07-14T08:50:53.784Z,49.32
2018-07-14T08:52:29.423Z,49.16
2018-07-14T08:54:05.005Z,49.02
2018-07-14T08:55:40.539Z,48.67
2018-07-14T08:57:16.154Z,48.65
2018-07-14T08:58:51.826Z,47.85
2018-07-14T09:00:27.377Z,47.40
2018-07-14T09:02:02.930Z,47.23
2018-07-14T09:03:38.543Z,47.22
2018-07-14T09:05:14.078Z,47.89
2018-07-14T09:06:49.663Z,47.15
2018-07-14T09:08:25.792Z,47.52
2018-07-14T09:10:02.631Z,47.70
2018-07-14T09:11:38.233Z,47.45
2018-07-14T09:13:14.078Z,47.31
2018-07-14T09:14:49.896Z,47.54
2018-07-14T09:16:25.547Z,46.94
2018-07-14T09:18:01.721Z,46.65
2018-07-14T09:21:19.373Z,47.01
2018-07-14T09:22:54.971Z,47.11
2018-07-14T09:24:30.769Z,46.76
2018-07-14T09:26:06.746Z,46.72
2018-07-14T09:27:42.855Z,45.81
2018-07-14T09:29:19.466Z,45.83
2018-07-14T09:30:55.911Z,45.98
2018-07-14T09:32:31.606Z,45.17
2018-07-14T09:34:07.189Z,45.51
2018-07-14T09:35:43.059Z,45.74
2018-07-14T09:37:18.656Z,45.33
2018-07-14T09:38:54.340Z,46.06
2018-07-14T09:40:29.976Z,46.15
2018-07-14T09:42:05.598Z,45.84
2018-07-14T09:43:41.363Z,45.48
2018-07-14T09:45:17.454Z,45.85
2018-07-14T09:46:53.012Z,45.74
2018-07-14T09:48:28.745Z,45.36
2018-07-14T09:50:06.079Z,45.96
2018-07-14T09:51:45.409Z,45.21
2018-07-14T09:53:21.485Z,44.63
2018-07-14T09:54:57.294Z,45.23
2018-07-14T09:56:32.830Z,44.49
2018-07-14T09:58:08.377Z,44.56
2018-07-14T09:59:43.955Z,44.36
2018-07-14T10:01:19.544Z,44.17
2018-07-14T10:02:55.082Z,44.33
2018-07-14T10:04:30.623Z,44.27
2018-07-14T10:06:06.273Z,43.76
2018-07-14T10:07:41.779Z,44.23
2018-07-14T10:09:17.363Z,43.58
2018-07-14T10:10:52.922Z,43.89
2018-07-14T10:12:28.617Z,43.96
2018-07-14T10:14:04.167Z,44.09
2018-07-14T10:15:39.739Z,43.79
2018-07-14T10:17:15.309Z,43.57
2018-07-14T10:18:51.107Z,43.80
2018-07-14T10:20:26.689Z,43.64
2018-07-14T10:22:02.297Z,43.32
2018-07-14T10:23:37.842Z,43.46
2018-07-14T10:25:13.452Z,42.70
2018-07-14T10:26:48.906Z,42.95
2018-07-14T10:28:24.469Z,43.09
2018-07-14T10:30:00.053Z,42.19
2018-07-14T10:31:35.767Z,42.33
2018-07-14T10:33:11.376Z,42.27
2018-07-14T10:34:46.958Z,42.16
2018-07-14T10:36:22.543Z,41.72
2018-07-14T10:37:58.091Z,41.98
2018-07-14T10:39:33.778Z,41.59
2018-07-14T10:41:09.351Z,41.46
2018-07-14T10:42:44.930Z,40.87
2018-07-14T10:44:20.764Z,40.56
2018-07-14T10:45:56.307Z,40.01
2018-07-14T10:47:31.871Z,40.76
2018-07-14T10:49:07.468Z,40.30
2018-07-14T10:50:43.011Z,39.79
2018-07-14T10:52:18.542Z,40.29
2018-07-14T10:53:54.112Z,40.05
2018-07-14T10:55:29.696Z,39.40
2018-07-14T10:57:05.402Z,40.01
2018-07-14T10:58:41.777Z,39.73
2018-07-14T11:00:17.317Z,40.05
2018-07-14T11:01:53.017Z,39.72
2018-07-14T11:03:28.562Z,39.68
2018-07-14T11:05:04.450Z,39.59
2018-07-14T11:06:39.988Z,39.79
2018-07-14T11:08:15.560Z,39.63
2018-07-14T11:09:51.111Z,39.04
2018-07-14T11:11:26.675Z,38.32
2018-07-14T11:13:02.225Z,37.15
2018-07-14T11:14:37.818Z,37.46
2018-07-14T11:16:13.423Z,38.22
2018-07-14T11:17:49.026Z,38.28
2018-07-14T11:19:24.579Z,38.81
2018-07-14T11:21:00.187Z,38.81
2018-07-14T11:22:35.756Z,38.89
2018-07-14T11:24:11.331Z,38.77
2018-07-14T11:25:46.878Z,39.06
2018-07-14T11:27:22.419Z,38.85
2018-07-14T11:28:58.044Z,38.66
2018-07-14T11:30:33.587Z,38.86
2018-07-14T11:32:09.150Z,39.16
2018-07-14T11:33:44.737Z,38.76
2018-07-14T11:35:20.336Z,37.86
2018-07-14T11:36:56.305Z,37.71
2018-07-14T11:38:31.855Z,37.98
2018-07-14T11:40:07.411Z,36.70
2018-07-14T11:41:42.988Z,36.69
2018-07-14T11:43:18.526Z,36.19
2018-07-14T11:44:54.117Z,36.05
2018-07-14T11:46:29.841Z,35.59
2018-07-14T11:48:05.425Z,35.62
2018-07-14T11:49:41.017Z,35.97
2018-07-14T11:51:16.571Z,35.95
2018-07-14T11:52:52.476Z,36.25
2018-07-14T11:54:28.843Z,36.03
2018-07-14T11:56:04.405Z,36.54
2018-07-14T11:57:40.010Z,35.56
2018-07-14T11:59:15.557Z,35.23
2018-07-14T12:00:51.136Z,34.99
2018-07-14T12:02:26.733Z,35.06
2018-07-14T12:04:02.317Z,34.88
2018-07-14T12:05:37.854Z,34.71
2018-07-14T12:07:13.428Z,34.81
2018-07-14T12:08:48.972Z,35.14
2018-07-14T12:10:24.511Z,34.71
2018-07-14T12:12:00.102Z,34.05
2018-07-14T12:13:35.680Z,33.43
2018-07-14T12:15:11.499Z,34.87
2018-07-14T12:16:47.065Z,34.56
2018-07-14T12:18:22.610Z,34.54
2018-07-14T12:19:58.221Z,34.15
2018-07-14T12:21:33.777Z,34.17
2018-07-14T12:23:09.314Z,33.95
2018-07-14T12:24:44.856Z,34.25
2018-07-14T12:26:20.441Z,34.76
2018-07-14T12:27:56.004Z,34.42
2018-07-14T12:29:31.579Z,33.64
2018-07-14T12:31:07.133Z,34.19
2018-07-14T12:32:42.701Z,33.50
2018-07-14T12:34:18.319Z,33.44
2018-07-14T12:35:53.859Z,33.60
2018-07-14T12:37:29.682Z,33.47
2018-07-14T12:39:05.666Z,33.21
2018-07-14T12:40:41.243Z,33.64
2018-07-14T12:42:16.841Z,34.74
2018-07-14T12:43:52.382Z,34.08
2018-07-14T12:45:27.956Z,34.50
2018-07-14T12:47:03.511Z,33.80
2018-07-14T12:48:39.102Z,34.16
2018-07-14T12:50:14.806Z,33.01
2018-07-14T12:51:50.358Z,33.46
2018-07-14T12:53:25.948Z,33.05
2018-07-14T12:55:01.539Z,33.64
2018-07-14T12:56:37.076Z,33.66
2018-07-14T12:58:12.614Z,33.72
2018-07-14T12:59:48.210Z,33.31
2018-07-14T13:01:23.772Z,33.47
2018-07-14T13:02:59.625Z,33.11
2018-07-14T13:04:35.470Z,32.78
2018-07-14T13:06:11.066Z,33.83
2018-07-14T13:07:46.889Z,33.18
2018-07-14T13:09:22.510Z,32.80
2018-07-14T13:10:58.062Z,32.53
2018-07-14T13:12:33.641Z,32.84
2018-07-14T13:14:09.243Z,32.66
2018-07-14T13:15:44.808Z,32.12
2018-07-14T13:17:20.387Z,32.97
2018-07-14T13:18:55.952Z,32.42
2018-07-14T13:20:31.511Z,32.45
2018-07-14T13:22:07.063Z,32.20
2018-07-14T13:23:42.647Z,32.20
2018-07-14T13:25:18.504Z,32.35
2018-07-14T13:26:54.059Z,33.05
2018-07-14T13:28:29.623Z,33.48
2018-07-14T13:30:05.459Z,32.66
2018-07-14T13:31:41.030Z,33.08
2018-07-14T13:33:16.574Z,32.37
2018-07-14T13:34:52.118Z,32.00
2018-07-14T13:36:27.731Z,32.86
2018-07-14T13:38:03.255Z,32.61
2018-07-14T13:39:38.976Z,32.78
2018-07-14T13:41:14.813Z,32.87
2018-07-14T13:42:50.383Z,31.89
2018-07-14T13:44:26.243Z,31.69
2018-07-14T13:46:01.809Z,32.68
2018-07-14T13:47:37.350Z,32.09
2018-07-14T13:49:12.957Z,31.66
2018-07-14T13:50:48.658Z,31.65
2018-07-14T13:52:24.405Z,31.92
2018-07-14T13:53:59.956Z,31.89
2018-07-14T13:55:35.517Z,32.18
2018-07-14T13:57:11.108Z,31.67
2018-07-14T13:58:47.035Z,31.76
2018-07-14T14:00:22.590Z,32.61
2018-07-14T14:01:58.142Z,32.35
2018-07-14T14:03:33.741Z,32.02
2018-07-14T14:05:09.271Z,32.16
2018-07-14T14:06:44.833Z,32.74
2018-07-14T14:08:20.373Z,32.20
2018-07-14T14:09:55.935Z,32.65
2018-07-14T14:11:31.514Z,32.16
2018-07-14T14:13:07.199Z,32.56
2018-07-14T14:14:42.775Z,32.27
2018-07-14T14:16:18.350Z,32.23
2018-07-14T14:17:54.101Z,32.76
2018-07-14T14:19:29.647Z,33.61
2018-07-14T14:21:05.210Z,33.46
2018-07-14T14:22:40.782Z,33.68
2018-07-14T14:24:16.354Z,32.69
2018-07-14T14:25:51.957Z,32.61
2018-07-14T14:27:27.626Z,33.71
2018-07-14T14:29:03.183Z,33.60
2018-07-14T14:30:39.013Z,32.97
2018-07-14T14:32:14.800Z,33.23
2018-07-14T14:33:50.359Z,33.40
2018-07-14T14:35:25.926Z,32.81
2018-07-14T14:37:01.666Z,33.75
2018-07-14T14:38:37.210Z,33.35
2018-07-14T14:40:12.766Z,32.09
2018-07-14T14:41:48.357Z,32.39
2018-07-14T14:43:23.945Z,31.90
2018-07-14T14:44:59.486Z,32.13
2018-07-14T14:46:35.043Z,32.79
2018-07-14T14:48:10.623Z,32.84
2018-07-14T14:49:46.169Z,32.64
2018-07-14T14:51:21.719Z,33.36
2018-07-14T14:52:57.678Z,33.39
2018-07-14T14:54:33.240Z,32.73
2018-07-14T14:56:08.822Z,32.65
2018-07-14T14:57:44.341Z,33.15
2018-07-14T14:59:19.919Z,32.42
2018-07-14T15:00:55.469Z,32.32
2018-07-14T15:02:31.033Z,31.98
2018-07-14T15:04:06.634Z,32.05
2018-07-14T15:05:42.247Z,32.02
2018-07-14T15:07:17.784Z,31.99
2018-07-14T15:08:53.429Z,32.21
2018-07-14T15:10:28.978Z,32.72
2018-07-14T15:12:04.791Z,32.46
2018-07-14T15:13:40.373Z,32.87
2018-07-14T15:15:16.200Z,32.14
2018-07-14T15:16:51.788Z,33.18
2018-07-14T15:18:27.357Z,32.39
2018-07-14T15:20:02.924Z,32.47
2018-07-14T15:21:38.494Z,31.62
2018-07-14T15:23:14.074Z,31.70
2018-07-14T15:24:49.619Z,32.29
2018-07-14T15:26:25.488Z,31.76
2018-07-14T15:28:01.042Z,31.84
2018-07-14T15:29:36.615Z,31.79
2018-07-14T15:31:12.157Z,32.38
2018-07-14T15:32:47.751Z,32.48
2018-07-14T15:34:23.287Z,32.24
2018-07-14T15:35:59.003Z,32.72
2018-07-14T15:37:34.572Z,32.31
2018-07-14T15:39:10.485Z,32.26
2018-07-14T15:40:46.046Z,32.51
2018-07-14T15:42:21.661Z,32.19
2018-07-14T15:43:57.203Z,32.31
2018-07-14T15:45:32.763Z,32.51
2018-07-14T15:47:08.303Z,32.05
2018-07-14T15:48:43.874Z,32.02
2018-07-14T15:50:19.438Z,32.76
2018-07-14T15:51:55.049Z,33.01
2018-07-14T15:53:30.602Z,32.31
2018-07-14T15:55:06.309Z,32.55
2018-07-14T15:56:41.875Z,33.17
2018-07-14T15:58:17.454Z,32.74
2018-07-14T15:59:53.027Z,33.01
2018-07-14T16:01:28.609Z,33.31
2018-07-14T16:03:04.173Z,33.29
2018-07-14T16:04:39.992Z,32.20
2018-07-14T16:06:15.535Z,32.15
2018-07-14T16:07:51.144Z,32.39
2018-07-14T16:09:26.954Z,31.88
2018-07-14T16:11:02.593Z,32.27
2018-07-14T16:12:38.152Z,31.98
2018-07-14T16:14:13.706Z,31.82
2018-07-14T16:15:49.268Z,31.55
2018-07-14T16:17:24.855Z,31.30
2018-07-14T16:19:00.436Z,31.04
2018-07-14T16:20:35.969Z,30.90
2018-07-14T16:22:11.528Z,30.91
2018-07-14T16:23:47.116Z,30.72
2018-07-14T16:25:22.676Z,31.11
2018-07-14T16:26:58.342Z,30.97
2018-07-14T16:28:34.109Z,31.20
2018-07-14T16:30:09.812Z,31.34
2018-07-14T16:31:45.363Z,31.15
2018-07-14T16:33:20.914Z,30.91
2018-07-14T16:34:56.706Z,30.87
2018-07-14T16:36:32.260Z,30.71
2018-07-14T16:38:07.857Z,31.43
2018-07-14T16:39:43.411Z,30.19
2018-07-14T16:41:18.991Z,31.24
2018-07-14T16:42:54.542Z,30.24
2018-07-14T16:44:30.101Z,29.92
2018-07-14T16:46:05.700Z,30.40
2018-07-14T16:47:41.287Z,30.22
2018-07-14T16:49:16.854Z,30.15
2018-07-14T16:50:52.425Z,29.80
2018-07-14T16:52:27.982Z,30.35
2018-07-14T16:54:03.560Z,30.24
2018-07-14T16:55:39.165Z,30.91
2018-07-14T16:57:15.096Z,30.85
2018-07-14T16:58:51.176Z,30.98
2018-07-14T17:00:26.753Z,31.07
2018-07-14T17:02:02.283Z,30.57
2018-07-14T17:03:37.861Z,31.40
2018-07-14T17:05:13.451Z,31.58
2018-07-14T17:06:49.013Z,31.83
2018-07-14T17:08:24.579Z,31.59
2018-07-14T17:10:00.224Z,32.79
2018-07-14T17:11:35.810Z,33.00
2018-07-14T17:13:11.474Z,32.71
2018-07-14T17:14:47.061Z,33.11
2018-07-14T17:16:22.621Z,33.05
2018-07-14T17:17:58.217Z,32.97
2018-07-14T17:19:33.763Z,33.95
2018-07-14T17:21:09.360Z,34.26
2018-07-14T17:22:44.939Z,34.52
2018-07-14T17:24:20.490Z,33.83
2018-07-14T17:25:56.068Z,34.08
2018-07-14T17:27:31.627Z,33.94
2018-07-14T17:29:07.210Z,33.80
2018-07-14T17:30:43.070Z,34.00
2018-07-14T17:32:18.759Z,34.25
2018-07-14T17:33:54.581Z,34.03
2018-07-14T17:35:30.222Z,34.48
2018-07-14T17:37:06.136Z,34.86
2018-07-14T17:38:41.707Z,34.91
2018-07-14T17:40:17.296Z,34.79
2018-07-14T17:41:52.854Z,34.99
2018-07-14T17:43:28.651Z,35.25
2018-07-14T17:45:04.553Z,35.63
2018-07-14T17:46:40.126Z,34.55
2018-07-14T17:48:15.711Z,34.44
2018-07-14T17:49:51.484Z,35.35
2018-07-14T17:51:27.047Z,35.35
2018-07-14T17:53:02.651Z,35.53
2018-07-14T17:54:38.470Z,36.05
2018-07-14T17:56:14.044Z,36.07
2018-07-14T17:57:49.601Z,36.47
2018-07-14T17:59:25.154Z,36.26
2018-07-14T18:01:00.744Z,36.19
2018-07-14T18:02:36.545Z,36.26
2018-07-14T18:04:12.075Z,36.56
2018-07-14T18:05:47.626Z,36.10
2018-07-14T18:07:23.218Z,36.20
2018-07-14T18:08:59.019Z,36.76
2018-07-14T18:10:34.560Z,36.57
2018-07-14T18:12:10.122Z,37.01
2018-07-14T18:13:45.755Z,36.95
2018-07-14T18:15:21.299Z,36.44
2018-07-14T18:16:56.909Z,36.81
2018-07-14T18:18:32.479Z,36.88
2018-07-14T18:20:08.020Z,36.82
2018-07-14T18:21:43.607Z,37.36
2018-07-14T18:23:19.147Z,37.60
2018-07-14T18:24:54.705Z,37.67
2018-07-14T18:26:30.255Z,37.70
2018-07-14T18:28:05.847Z,37.65
2018-07-14T18:29:41.478Z,38.38
2018-07-14T18:31:17.186Z,38.61
2018-07-14T18:32:52.753Z,38.53
2018-07-14T18:34:28.370Z,38.79
2018-07-14T18:36:03.960Z,39.17
2018-07-14T18:37:39.468Z,38.56
2018-07-14T18:39:15.052Z,38.88
2018-07-14T18:40:50.630Z,39.06
2018-07-14T18:42:26.199Z,39.25
2018-07-14T18:44:02.052Z,39.49
2018-07-14T18:45:37.606Z,39.63
2018-07-14T18:47:13.339Z,40.96
2018-07-14T18:48:49.018Z,40.92
2018-07-14T18:50:24.583Z,41.31
2018-07-14T18:52:00.168Z,40.98
2018-07-14T18:53:35.882Z,41.28
2018-07-14T18:55:11.557Z,41.17
2018-07-14T18:56:47.142Z,41.79
2018-07-14T18:58:22.691Z,43.34
2018-07-14T18:59:58.280Z,43.53
2018-07-14T19:01:33.845Z,44.61
2018-07-14T19:03:09.577Z,44.81
2018-07-14T19:04:45.122Z,45.13
2018-07-14T19:06:20.664Z,46.00
2018-07-14T19:10:01.709Z,46.62
2018-07-14T19:11:37.259Z,46.79
2018-07-14T19:13:12.998Z,46.51
2018-07-14T19:14:48.605Z,46.98
2018-07-14T19:16:24.110Z,47.05
2018-07-14T19:17:59.691Z,47.44
2018-07-14T19:19:35.275Z,47.44
2018-07-14T19:21:10.845Z,47.57
2018-07-14T19:22:46.343Z,48.06
2018-07-14T19:24:21.931Z,48.11
2018-07-14T19:25:57.575Z,48.29
2018-07-14T19:27:33.024Z,48.47
2018-07-14T19:29:08.569Z,48.45
2018-07-14T19:30:44.150Z,48.52
2018-07-14T19:32:19.702Z,48.56
2018-07-14T19:33:55.311Z,49.16
2018-07-14T19:35:30.911Z,48.92
2018-07-14T19:37:06.594Z,49.16
2018-07-14T19:38:42.196Z,49.35
2018-07-14T19:40:17.780Z,49.59
2018-07-14T19:41:53.636Z,49.74
2018-07-14T19:43:29.320Z,49.75
2018-07-14T19:45:05.030Z,49.77
2018-07-14T19:46:40.631Z,50.15
2018-07-14T19:48:16.195Z,50.28
2018-07-14T19:49:52.009Z,49.93
2018-07-14T19:51:27.722Z,50.08
2018-07-14T19:53:03.264Z,50.15
2018-07-14T19:54:38.804Z,50.24
2018-07-14T19:56:14.439Z,50.70
2018-07-14T19:57:50.214Z,50.60
2018-07-14T19:59:25.783Z,51.23
2018-07-14T20:01:01.385Z,51.09
2018-07-14T20:02:36.974Z,51.47
2018-07-14T20:04:12.614Z,51.31
2018-07-14T20:05:48.151Z,51.57
2018-07-14T20:07:23.702Z,51.64
2018-07-14T20:08:59.443Z,51.63
2018-07-14T20:10:35.048Z,51.74
2018-07-14T20:12:10.890Z,51.93
2018-07-14T20:13:46.465Z,52.30
2018-07-14T20:15:22.204Z,52.44
2018-07-14T20:16:57.772Z,52.69
2018-07-14T20:18:33.312Z,52.39
2018-07-14T20:20:09.514Z,52.29
2018-07-14T20:21:45.074Z,52.52
2018-07-14T20:23:20.650Z,52.30
2018-07-14T20:24:56.179Z,52.99
2018-07-14T20:26:31.729Z,52.94
2018-07-14T20:28:07.285Z,52.87
2018-07-14T20:29:42.863Z,53.30
2018-07-14T20:31:18.523Z,53.36
2018-07-14T20:32:54.090Z,53.13
2018-07-14T20:34:29.636Z,53.47
2018-07-14T20:36:05.226Z,53.74